createdAt,value
2023-05-22T00:01:45.346Z,29.95
2023-05-22T00:04:13.465Z,39.80
2023-05-22T00:06:43.288Z,33.95
2023-05-22T00:09:10.042Z,38.45
2023-05-22T00:11:36.699Z,51.35
2023-05-22T00:14:05.672Z,40.72
2023-05-22T00:16:32.159Z,36.90
2023-05-22T00:18:59.172Z,34.80
2023-05-22T00:21:27.825Z,39.20
2023-05-22T00:23:54.244Z,45.70
2023-05-22T00:26:22.336Z,46.20
2023-05-22T00:28:48.853Z,42.17
2023-05-22T00:31:15.537Z,40.63
2023-05-22T00:33:42.130Z,38.80
2023-05-22T00:36:08.991Z,35.42
2023-05-22T00:38:37.890Z,40.05
2023-05-22T00:41:05.982Z,40.88
2023-05-22T00:43:36.339Z,42.22
2023-05-22T00:46:02.950Z,39.53
2023-05-22T00:48:30.171Z,46.55
2023-05-22T00:50:57.414Z,49.03
2023-05-22T00:53:24.704Z,40.15
2023-05-22T00:55:51.498Z,71.45
2023-05-22T00:58:18.290Z,43.38
2023-05-22T01:00:45.355Z,40.83
2023-05-22T01:03:12.348Z,46.85
2023-05-22T01:05:39.705Z,43.92
2023-05-22T01:08:07.877Z,42.03
2023-05-22T01:10:35.864Z,36.03
2023-05-22T01:13:16.201Z,39.55
2023-05-22T01:16:01.571Z,41.88
2023-05-22T01:18:46.744Z,43.55
2023-05-22T01:21:22.241Z,44.78
2023-05-22T01:24:17.241Z,48.13
2023-05-22T01:26:50.089Z,42.15
2023-05-22T01:29:19.689Z,46.40
2023-05-22T01:31:47.494Z,50.35
2023-05-22T01:34:16.300Z,40.05
2023-05-22T01:36:43.793Z,50.72
2023-05-22T01:39:11.252Z,35.65
2023-05-22T01:41:37.777Z,52.65
2023-05-22T01:44:07.335Z,46.53
2023-05-22T01:46:34.023Z,38.38
2023-05-22T01:49:00.482Z,42.97
2023-05-22T01:51:51.392Z,46.60
2023-05-22T01:54:24.138Z,48.55
2023-05-22T01:56:55.788Z,43.10
2023-05-22T01:59:30.939Z,44.92
2023-05-22T02:02:00.671Z,49.50
2023-05-22T02:04:29.789Z,47.33
2023-05-22T02:06:57.786Z,45.75
2023-05-22T02:09:28.078Z,45.65
2023-05-22T02:11:55.130Z,43.25
2023-05-22T02:14:22.346Z,58.50
2023-05-22T02:16:49.102Z,36.35
2023-05-22T02:19:15.716Z,38.92
2023-05-22T02:21:42.666Z,41.72
2023-05-22T02:24:09.326Z,36.40
2023-05-22T02:26:35.851Z,45.92
2023-05-22T02:29:02.400Z,46.97
2023-05-22T02:31:29.896Z,42.50
2023-05-22T02:33:57.214Z,45.92
2023-05-22T02:36:23.655Z,48.22
2023-05-22T02:38:50.517Z,37.47
2023-05-22T02:41:16.981Z,39.83
2023-05-22T02:43:43.875Z,38.45
2023-05-22T02:46:10.756Z,40.47
2023-05-22T02:48:37.654Z,32.90
2023-05-22T02:51:04.782Z,43.25
2023-05-22T02:53:31.951Z,42.28
2023-05-22T02:55:58.917Z,38.22
2023-05-22T02:58:25.753Z,37.60
2023-05-22T03:00:53.074Z,39.00
2023-05-22T03:03:19.815Z,54.78
2023-05-22T03:05:46.607Z,49.67
2023-05-22T03:08:15.379Z,39.28
2023-05-22T03:10:42.224Z,49.63
2023-05-22T03:13:08.662Z,63.92
2023-05-22T03:15:35.369Z,64.18
2023-05-22T03:18:10.085Z,39.45
2023-05-22T03:20:38.674Z,42.30
2023-05-22T03:23:05.340Z,58.58
2023-05-22T03:25:31.793Z,65.03
2023-05-22T03:27:58.304Z,52.17
2023-05-22T03:30:27.274Z,123.20
2023-05-22T03:33:06.716Z,96.40
2023-05-22T03:35:33.780Z,92.70
2023-05-22T03:38:00.423Z,47.20
2023-05-22T03:40:27.248Z,90.45
2023-05-22T03:42:54.212Z,49.33
2023-05-22T03:45:20.841Z,55.80
2023-05-22T03:47:47.732Z,220.98
2023-05-22T03:50:14.354Z,74.00
2023-05-22T03:52:40.765Z,158.38
2023-05-22T03:55:07.951Z,63.13
2023-05-22T03:57:34.600Z,99.13
2023-05-22T04:00:09.896Z,72.82
2023-05-22T04:02:39.995Z,62.40
2023-05-22T04:05:10.174Z,113.05
2023-05-22T04:07:37.033Z,205.18
2023-05-22T04:10:04.740Z,65.60
2023-05-22T04:12:31.597Z,73.03
2023-05-22T04:14:58.255Z,49.10
2023-05-22T04:17:25.986Z,41.63
2023-05-22T04:19:52.486Z,41.00
2023-05-22T04:22:18.947Z,44.47
2023-05-22T04:24:49.268Z,93.18
2023-05-22T04:27:16.260Z,44.85
2023-05-22T04:29:44.842Z,35.47
2023-05-22T04:32:11.556Z,38.28
2023-05-22T04:34:38.200Z,46.10
2023-05-22T04:37:05.125Z,38.65
2023-05-22T04:39:31.762Z,31.77
2023-05-22T04:41:58.298Z,43.33
2023-05-22T04:44:24.873Z,41.88
2023-05-22T04:46:52.147Z,34.08
2023-05-22T04:49:18.711Z,41.58
2023-05-22T04:51:45.317Z,42.13
2023-05-22T04:54:11.926Z,40.30
2023-05-22T04:56:39.336Z,38.33
2023-05-22T04:59:08.981Z,52.13
2023-05-22T05:01:38.406Z,43.10
2023-05-22T05:04:05.054Z,69.07
2023-05-22T05:06:31.536Z,55.80
2023-05-22T05:08:58.073Z,50.72
2023-05-22T05:11:24.725Z,52.45
2023-05-22T05:13:51.281Z,45.30
2023-05-22T05:16:18.618Z,50.15
2023-05-22T05:18:45.126Z,54.80
2023-05-22T05:21:11.651Z,45.97
2023-05-22T05:23:38.275Z,61.80
2023-05-22T05:26:04.791Z,49.05
2023-05-22T05:28:31.478Z,57.72
2023-05-22T05:30:59.736Z,49.08
2023-05-22T05:33:52.323Z,49.92
2023-05-22T05:36:48.037Z,46.58
2023-05-22T05:39:15.759Z,44.83
2023-05-22T05:41:42.846Z,39.00
2023-05-22T05:44:10.584Z,54.05
2023-05-22T05:46:37.776Z,41.15
2023-05-22T05:49:10.153Z,45.38
2023-05-22T05:51:38.697Z,41.30
2023-05-22T05:54:05.885Z,45.60
2023-05-22T05:56:33.062Z,41.10
2023-05-22T05:59:00.394Z,42.03
2023-05-22T06:01:33.057Z,45.58
2023-05-22T06:04:04.255Z,42.13
2023-05-22T06:06:36.187Z,41.15
2023-05-22T06:09:14.992Z,40.55
2023-05-22T06:12:04.882Z,36.55
2023-05-22T06:14:31.350Z,44.08
2023-05-22T06:16:58.298Z,49.95
2023-05-22T06:19:24.974Z,51.00
2023-05-22T06:21:52.220Z,40.88
2023-05-22T06:24:20.189Z,49.35
2023-05-22T06:26:46.790Z,46.30
2023-05-22T06:29:14.888Z,42.78
2023-05-22T06:31:41.447Z,45.67
2023-05-22T06:34:08.832Z,41.70
2023-05-22T06:36:35.676Z,42.75
2023-05-22T06:39:02.521Z,42.30
2023-05-22T06:41:47.720Z,44.25
2023-05-22T06:44:14.622Z,49.20
2023-05-22T06:46:41.112Z,44.03
2023-05-22T06:49:14.486Z,41.88
2023-05-22T06:51:50.835Z,36.45
2023-05-22T06:54:17.402Z,38.78
2023-05-22T06:56:53.274Z,39.17
2023-05-22T06:59:20.968Z,34.92
2023-05-22T07:02:06.754Z,42.83
2023-05-22T07:04:59.160Z,44.75
2023-05-22T07:14:04.849Z,39.17
2023-05-22T07:16:56.532Z,38.53
2023-05-22T07:22:22.276Z,39.83
2023-05-22T07:24:49.118Z,30.13
2023-05-22T07:27:18.028Z,37.13
2023-05-22T07:29:47.628Z,34.70
2023-05-22T07:32:14.208Z,29.67
2023-05-22T07:34:42.708Z,35.15
2023-05-22T07:37:12.232Z,26.77
2023-05-22T07:39:39.903Z,33.78
2023-05-22T07:42:07.490Z,32.08
2023-05-22T07:44:39.520Z,28.52
2023-05-22T07:47:06.220Z,28.95
2023-05-22T07:49:34.313Z,29.45
2023-05-22T07:52:01.500Z,26.00
2023-05-22T07:54:28.344Z,26.60
2023-05-22T07:56:56.263Z,29.63
2023-05-22T07:59:25.346Z,28.02
2023-05-22T08:01:55.994Z,28.45
2023-05-22T08:04:24.460Z,33.78
2023-05-22T08:06:51.044Z,28.33
2023-05-22T08:09:17.580Z,27.40
2023-05-22T08:11:44.164Z,33.50
2023-05-22T08:14:10.699Z,29.52
2023-05-22T08:16:37.542Z,25.55
2023-05-22T08:19:07.137Z,25.13
2023-05-22T08:21:34.419Z,30.48
2023-05-22T08:24:01.362Z,26.33
2023-05-22T08:26:28.745Z,30.88
2023-05-22T08:28:56.413Z,29.67
2023-05-22T08:31:23.219Z,27.42
2023-05-22T08:33:49.774Z,29.80
2023-05-22T08:36:16.363Z,26.73
2023-05-22T08:38:43.138Z,27.02
2023-05-22T08:41:10.505Z,29.23
2023-05-22T08:43:37.050Z,27.95
2023-05-22T08:46:07.219Z,26.00
2023-05-22T08:48:33.794Z,28.15
2023-05-22T08:51:04.542Z,26.15
2023-05-22T08:53:32.981Z,31.13
2023-05-22T08:55:59.608Z,26.17
2023-05-22T08:58:26.773Z,26.75
2023-05-22T09:00:54.153Z,24.50
2023-05-22T09:03:21.545Z,24.48
2023-05-22T09:05:49.379Z,22.23
2023-05-22T09:08:20.368Z,23.77
2023-05-22T09:10:47.833Z,24.20
2023-05-22T09:13:24.017Z,26.17
2023-05-22T09:15:50.716Z,19.65
2023-05-22T09:18:17.210Z,24.88
2023-05-22T09:20:43.838Z,21.40
2023-05-22T09:23:20.294Z,25.45
2023-05-22T09:25:47.669Z,25.65
2023-05-22T09:28:14.384Z,22.65
2023-05-22T09:30:42.516Z,23.30
2023-05-22T09:33:13.104Z,23.50
2023-05-22T09:35:39.794Z,23.65
2023-05-22T09:38:10.159Z,22.42
2023-05-22T09:40:41.254Z,29.55
2023-05-22T09:43:08.711Z,28.23
2023-05-22T09:45:36.383Z,22.35
2023-05-22T09:48:06.351Z,23.25
2023-05-22T09:50:32.914Z,26.15
2023-05-22T09:53:06.822Z,25.45
2023-05-22T09:55:33.737Z,21.23
2023-05-22T09:58:05.076Z,22.17
2023-05-22T10:00:34.195Z,20.50
2023-05-22T10:03:08.370Z,23.10
2023-05-22T10:05:36.208Z,22.92
2023-05-22T10:08:05.123Z,19.88
2023-05-22T10:10:32.307Z,18.73
2023-05-22T10:13:04.760Z,18.42
2023-05-22T10:15:31.845Z,14.73
2023-05-22T10:17:58.940Z,20.10
2023-05-22T10:20:26.907Z,15.60
2023-05-22T10:22:53.938Z,16.40
2023-05-22T10:25:21.877Z,21.00
2023-05-22T10:27:49.513Z,21.98
2023-05-22T10:30:16.258Z,25.33
2023-05-22T10:33:07.710Z,19.05
2023-05-22T10:35:43.514Z,17.58
2023-05-22T10:38:10.018Z,19.27
2023-05-22T10:40:36.685Z,21.35
2023-05-22T10:43:04.213Z,16.55
2023-05-22T10:45:31.815Z,18.80
2023-05-22T10:48:09.097Z,16.90
2023-05-22T10:50:36.193Z,17.20
2023-05-22T10:53:20.279Z,20.27
2023-05-22T10:55:50.875Z,19.88
2023-05-22T10:58:18.042Z,18.03
2023-05-22T11:00:44.857Z,19.05
2023-05-22T11:03:17.912Z,18.60
2023-05-22T11:05:52.136Z,23.70
2023-05-22T11:08:33.989Z,18.58
2023-05-22T11:11:09.654Z,14.30
2023-05-22T11:13:36.369Z,14.65
2023-05-22T11:16:04.865Z,11.10
2023-05-22T11:18:32.908Z,16.30
2023-05-22T11:20:59.839Z,16.23
2023-05-22T11:23:26.509Z,14.90
2023-05-22T11:25:53.278Z,19.10
2023-05-22T11:28:20.064Z,13.05
2023-05-22T11:30:46.836Z,14.15
2023-05-22T11:33:13.438Z,11.77
2023-05-22T11:35:40.490Z,15.93
2023-05-22T11:38:08.195Z,12.35
2023-05-22T11:40:34.892Z,10.40
2023-05-22T11:43:04.020Z,13.35
2023-05-22T11:45:31.062Z,11.50
2023-05-22T11:47:57.582Z,9.60
2023-05-22T11:50:40.368Z,9.75
2023-05-22T11:53:08.194Z,10.85
2023-05-22T11:55:34.983Z,10.68
2023-05-22T11:58:02.766Z,9.90
2023-05-22T12:00:30.271Z,8.50
2023-05-22T12:02:56.799Z,8.07
2023-05-22T12:05:23.427Z,8.27
2023-05-22T12:07:50.006Z,13.10
2023-05-22T12:10:16.626Z,8.52
2023-05-22T12:12:43.966Z,7.78
2023-05-22T12:15:10.662Z,10.70
2023-05-22T12:17:38.400Z,14.80
2023-05-22T12:20:05.453Z,17.88
2023-05-22T12:22:32.028Z,13.52
2023-05-22T12:24:58.543Z,12.43
2023-05-22T12:27:31.657Z,13.15
2023-05-22T12:29:59.694Z,8.77
2023-05-22T12:32:29.377Z,9.93
2023-05-22T12:34:57.849Z,9.10
2023-05-22T12:37:28.350Z,8.02
2023-05-22T12:39:55.576Z,13.13
2023-05-22T12:42:22.501Z,12.55
2023-05-22T12:44:48.979Z,17.02
2023-05-22T12:47:15.488Z,9.93
2023-05-22T12:49:41.908Z,11.45
2023-05-22T12:52:08.509Z,14.10
2023-05-22T12:54:35.052Z,16.13
2023-05-22T12:57:01.628Z,11.85
2023-05-22T12:59:28.089Z,13.73
2023-05-22T13:01:54.811Z,17.13
2023-05-22T13:04:21.595Z,12.00
2023-05-22T13:06:48.032Z,17.50
2023-05-22T13:09:16.943Z,15.02
2023-05-22T13:11:43.592Z,21.73
2023-05-22T13:14:10.103Z,14.00
2023-05-22T13:16:36.867Z,23.20
2023-05-22T13:19:03.594Z,18.70
2023-05-22T13:21:30.092Z,18.52
2023-05-22T13:23:57.166Z,17.75
2023-05-22T13:26:23.663Z,24.00
2023-05-22T13:28:50.676Z,21.50
2023-05-22T13:31:17.143Z,17.30
2023-05-22T13:33:43.618Z,16.08
2023-05-22T13:36:10.829Z,15.15
2023-05-22T13:38:37.391Z,12.70
2023-05-22T13:41:03.892Z,11.82
2023-05-22T13:43:30.518Z,11.60
2023-05-22T13:45:56.921Z,8.32
2023-05-22T13:48:23.411Z,8.48
2023-05-22T13:50:49.864Z,11.45
2023-05-22T13:53:16.596Z,10.38
2023-05-22T13:55:43.110Z,10.60
2023-05-22T13:58:09.681Z,7.03
2023-05-22T14:00:36.287Z,8.02
2023-05-22T14:03:04.417Z,10.68
2023-05-22T14:05:32.040Z,12.95
2023-05-22T14:07:58.444Z,8.13
2023-05-22T14:10:24.887Z,12.27
2023-05-22T14:12:51.630Z,13.25
2023-05-22T14:15:18.591Z,10.25
2023-05-22T14:17:45.501Z,8.35
2023-05-22T14:20:12.140Z,8.95
2023-05-22T14:22:48.328Z,8.70
2023-05-22T14:25:24.713Z,10.30
2023-05-22T14:27:51.162Z,8.13
2023-05-22T14:30:17.826Z,7.13
2023-05-22T14:32:44.377Z,6.88
2023-05-22T14:35:11.186Z,6.22
2023-05-22T14:37:37.811Z,9.05
2023-05-22T14:40:07.921Z,5.72
2023-05-22T14:42:35.057Z,10.88
2023-05-22T14:45:01.751Z,8.18
2023-05-22T14:47:28.192Z,11.20
2023-05-22T14:49:57.622Z,6.35
2023-05-22T14:52:30.651Z,6.45
2023-05-22T14:54:57.102Z,7.63
2023-05-22T14:57:23.648Z,8.82
2023-05-22T14:59:50.188Z,10.65
2023-05-22T15:02:16.966Z,7.07
2023-05-22T15:04:45.187Z,7.38
2023-05-22T15:07:11.959Z,8.20
2023-05-22T15:09:38.489Z,5.85
2023-05-22T15:12:05.137Z,7.60
2023-05-22T15:14:31.598Z,6.45
2023-05-22T15:17:01.075Z,5.35
2023-05-22T15:19:27.612Z,6.03
2023-05-22T15:21:54.614Z,15.20
2023-05-22T15:24:21.710Z,11.73
2023-05-22T15:26:48.496Z,5.93
2023-05-22T15:29:15.138Z,4.85
2023-05-22T15:31:41.935Z,5.53
2023-05-22T15:34:08.696Z,5.53
2023-05-22T15:36:36.546Z,2.30
2023-05-22T15:39:05.161Z,3.53
2023-05-22T15:41:31.774Z,5.25
2023-05-22T15:43:58.200Z,7.30
2023-05-22T15:46:24.687Z,14.98
2023-05-22T15:48:51.294Z,4.35
2023-05-22T15:51:17.768Z,8.00
2023-05-22T15:53:44.356Z,7.90
2023-05-22T15:56:10.942Z,3.47
2023-05-22T15:58:37.588Z,2.75
2023-05-22T16:01:04.303Z,1.60
2023-05-22T16:03:33.320Z,5.95
2023-05-22T16:05:59.855Z,2.20
2023-05-22T16:08:26.371Z,5.20
2023-05-22T16:10:52.939Z,2.47
2023-05-22T16:13:19.643Z,5.50
2023-05-22T16:15:46.200Z,5.05
2023-05-22T16:18:13.020Z,2.45
2023-05-22T16:20:39.876Z,3.63
2023-05-22T16:23:06.428Z,3.40
2023-05-22T16:25:33.275Z,3.50
2023-05-22T16:27:59.766Z,3.15
2023-05-22T16:30:26.198Z,3.90
2023-05-22T16:32:52.713Z,4.95
2023-05-22T16:35:19.941Z,7.72
2023-05-22T16:37:46.509Z,2.95
2023-05-22T16:40:13.188Z,8.10
2023-05-22T16:42:39.656Z,3.03
2023-05-22T16:45:06.868Z,4.45
2023-05-22T16:47:33.464Z,6.55
2023-05-22T16:50:00.210Z,5.80
2023-05-22T16:52:26.819Z,6.57
2023-05-22T16:54:53.518Z,3.75
2023-05-22T16:57:19.978Z,5.70
2023-05-22T16:59:46.510Z,8.77
2023-05-22T17:02:13.600Z,8.68
2023-05-22T17:04:41.164Z,5.13
2023-05-22T17:07:08.364Z,5.65
2023-05-22T17:09:34.753Z,8.15
2023-05-22T17:12:01.458Z,4.13
2023-05-22T17:14:28.054Z,6.32
2023-05-22T17:16:55.217Z,6.65
2023-05-22T17:19:22.098Z,6.55
2023-05-22T17:21:48.754Z,5.53
2023-05-22T17:24:15.432Z,4.53
2023-05-22T17:26:42.205Z,7.43
2023-05-22T17:29:10.913Z,9.40
2023-05-22T17:31:39.469Z,5.80
2023-05-22T17:34:06.832Z,7.15
2023-05-22T17:36:33.446Z,10.68
2023-05-22T17:39:00.006Z,13.77
2023-05-22T17:41:26.670Z,7.32
2023-05-22T17:43:54.662Z,6.15
2023-05-22T17:46:21.164Z,10.38
2023-05-22T17:48:47.694Z,7.82
2023-05-22T17:51:14.214Z,5.47
2023-05-22T17:53:40.862Z,6.03
2023-05-22T17:56:07.916Z,9.05
2023-05-22T17:58:34.372Z,7.20
2023-05-22T18:01:01.157Z,8.43
2023-05-22T18:03:27.838Z,7.72
2023-05-22T18:05:54.447Z,13.55
2023-05-22T18:08:21.554Z,8.80
2023-05-22T18:10:48.590Z,9.02
2023-05-22T18:13:15.061Z,8.10
2023-05-22T18:15:41.660Z,7.45
2023-05-22T18:18:09.219Z,8.48
2023-05-22T18:20:37.791Z,10.05
2023-05-22T18:23:05.212Z,8.48
2023-05-22T18:25:31.664Z,10.80
2023-05-22T18:27:58.363Z,9.05
2023-05-22T18:30:24.963Z,11.90
2023-05-22T18:32:51.635Z,10.38
2023-05-22T18:35:18.131Z,12.68
2023-05-22T18:37:45.260Z,9.52
2023-05-22T18:40:12.064Z,10.43
2023-05-22T18:42:38.842Z,10.77
2023-05-22T18:45:06.572Z,10.90
2023-05-22T18:47:33.350Z,12.32
2023-05-22T18:50:00.091Z,10.63
2023-05-22T18:52:26.912Z,8.52
2023-05-22T18:54:53.469Z,12.07
2023-05-22T18:57:19.966Z,10.63
2023-05-22T18:59:46.993Z,13.35
2023-05-22T19:02:16.332Z,15.02
2023-05-22T19:04:43.496Z,13.70
2023-05-22T19:07:10.344Z,15.63
2023-05-22T19:09:37.032Z,11.00
2023-05-22T19:12:03.737Z,11.95
2023-05-22T19:14:30.252Z,10.93
2023-05-22T19:16:59.208Z,13.30
2023-05-22T19:19:26.143Z,16.88
2023-05-22T19:21:53.270Z,11.05
2023-05-22T19:24:19.988Z,12.10
2023-05-22T19:26:46.514Z,10.63
2023-05-22T19:29:12.961Z,14.48
2023-05-22T19:31:39.872Z,9.80
2023-05-22T19:34:06.901Z,10.88
2023-05-22T19:36:33.400Z,9.82
2023-05-22T19:38:59.916Z,8.32
2023-05-22T19:41:26.744Z,15.32
2023-05-22T19:43:53.202Z,9.13
2023-05-22T19:46:20.990Z,12.10
2023-05-22T19:48:47.424Z,10.90
2023-05-22T19:51:14.091Z,14.45
2023-05-22T19:53:41.464Z,12.38
2023-05-22T19:56:08.107Z,13.45
2023-05-22T19:58:34.861Z,11.55
2023-05-22T20:01:01.395Z,12.90
2023-05-22T20:03:27.943Z,9.75
2023-05-22T20:05:54.525Z,10.80
2023-05-22T20:08:25.401Z,15.30
2023-05-22T20:10:52.301Z,11.85
2023-05-22T20:13:18.842Z,15.07
2023-05-22T20:15:47.593Z,14.05
2023-05-22T20:18:14.553Z,14.77
2023-05-22T20:20:41.174Z,15.32
2023-05-22T20:23:07.912Z,15.25
2023-05-22T20:25:34.387Z,14.38
2023-05-22T20:28:00.915Z,14.18
2023-05-22T20:30:27.332Z,16.67
2023-05-22T20:32:53.789Z,20.42
2023-05-22T20:35:22.137Z,20.67
2023-05-22T20:37:48.610Z,17.52
2023-05-22T20:40:16.047Z,15.73
2023-05-22T20:42:42.998Z,16.50
2023-05-22T20:45:14.880Z,15.88
2023-05-22T20:47:43.443Z,10.20
2023-05-22T20:50:10.223Z,11.88
2023-05-22T20:52:37.551Z,11.10
2023-05-22T20:55:04.915Z,11.93
2023-05-22T20:57:31.500Z,12.18
2023-05-22T20:59:58.496Z,11.32
2023-05-22T21:02:25.849Z,8.85
2023-05-22T21:04:55.565Z,14.40
2023-05-22T21:07:22.022Z,7.32
2023-05-22T21:09:48.534Z,9.45
2023-05-22T21:12:15.161Z,13.40
2023-05-22T21:14:43.928Z,8.05
2023-05-22T21:17:10.518Z,6.85
2023-05-22T21:19:37.336Z,13.93
2023-05-22T21:22:06.991Z,5.57
2023-05-22T21:24:33.577Z,7.70
2023-05-22T21:27:00.105Z,6.95
2023-05-22T21:29:26.625Z,7.03
2023-05-22T21:31:53.231Z,4.88
2023-05-22T21:34:19.943Z,8.88
2023-05-22T21:36:46.412Z,5.03
2023-05-22T21:39:12.933Z,10.65
2023-05-22T21:41:39.631Z,7.32
2023-05-22T21:44:06.306Z,7.72
2023-05-22T21:46:33.014Z,5.72
2023-05-22T21:48:59.943Z,9.45
2023-05-22T21:51:26.557Z,5.53
2023-05-22T21:53:53.083Z,11.13
2023-05-22T21:56:19.580Z,7.55
2023-05-22T21:58:46.000Z,7.80
2023-05-22T22:01:12.523Z,6.55
2023-05-22T22:03:39.106Z,7.43
2023-05-22T22:06:05.819Z,5.97
2023-05-22T22:08:32.549Z,7.45
2023-05-22T22:10:59.619Z,10.45
2023-05-22T22:13:26.089Z,9.38
2023-05-22T22:15:53.454Z,5.80
2023-05-22T22:18:20.551Z,7.55
2023-05-22T22:20:50.178Z,10.93
2023-05-22T22:23:16.820Z,7.35
2023-05-22T22:25:43.285Z,11.30
2023-05-22T22:28:09.724Z,6.47
2023-05-22T22:30:36.419Z,9.25
2023-05-22T22:33:03.001Z,7.45
2023-05-22T22:35:32.608Z,10.98
2023-05-22T22:37:59.038Z,11.38
2023-05-22T22:40:38.273Z,7.43
2023-05-22T22:43:05.071Z,8.88
2023-05-22T22:45:31.857Z,11.93
2023-05-22T22:47:58.392Z,9.93
2023-05-22T22:50:25.012Z,11.60
2023-05-22T22:52:51.442Z,10.93
2023-05-22T22:55:18.350Z,9.90
2023-05-22T22:57:49.981Z,17.00
2023-05-22T23:00:20.203Z,13.32
2023-05-22T23:02:46.937Z,9.10
2023-05-22T23:05:14.927Z,12.50
2023-05-22T23:07:41.497Z,9.32
2023-05-22T23:10:08.525Z,10.18
2023-05-22T23:12:36.274Z,13.38
2023-05-22T23:15:05.698Z,12.68
2023-05-22T23:17:32.306Z,20.92
2023-05-22T23:19:58.712Z,23.35
2023-05-22T23:22:25.170Z,15.48
2023-05-22T23:24:51.785Z,15.80
2023-05-22T23:27:18.669Z,12.90
2023-05-22T23:29:45.299Z,12.10
2023-05-22T23:32:13.874Z,19.35
2023-05-22T23:34:42.527Z,24.85
2023-05-22T23:37:09.240Z,19.02
2023-05-22T23:39:35.836Z,23.63
2023-05-22T23:42:02.876Z,22.55
2023-05-22T23:44:30.251Z,18.25
2023-05-22T23:46:57.060Z,22.42
2023-05-22T23:49:23.704Z,30.45
2023-05-22T23:51:50.218Z,23.58
2023-05-22T23:54:16.914Z,23.65
2023-05-22T23:56:43.599Z,24.15
2023-05-22T23:59:10.526Z,20.92
